Time;durP1;ratioP1;P1;durP2;ratioP2;P2;SDS_P1;SDS_P2;PMS_P1;PMS_P2;Temp;Humidity;BMP_temperature;BMP_pressure;BME280_temperature;BME280_humidity;BME280_pressure;Samples;Min_cycle;Max_cycle;Signal;HPM_P1;HPM_P2
2021/06/12 00:00:08;;;;;;;;;;;;;;;23.84;55.46;101114.19;2072341;28;4164;-34
2021/06/12 00:01:35;;;;;;;;;;;;;;;23.84;55.34;101117.88;2064262;28;4229;-34
2021/06/12 00:03:02;;;;;;;;;;;;;;;23.84;55.33;101115.00;2068319;28;3930;-34
2021/06/12 00:04:28;;;;;;;;;;;;;;;23.85;55.25;101113.00;2067332;28;4277;-34
2021/06/12 00:05:53;;;;;;;;;;;;;;;23.85;55.29;101104.44;2068081;28;3962;-34
2021/06/12 00:07:20;;;;;;;;;;;;;;;23.85;55.29;101110.97;2068810;28;4193;-33
2021/06/12 00:08:47;;;;;;;;;;;;;;;23.86;55.22;101112.63;2069197;28;4093;-33
2021/06/12 00:10:13;;;;;;;;;;;;;;;23.85;55.14;101105.25;2071585;28;3941;-34
2021/06/12 00:11:40;;;;;;;;;;;;;;;23.86;55.26;101112.63;2069867;28;4222;-34
2021/06/12 00:13:07;;;;;;;;;;;;;;;23.85;55.15;101102.41;2070014;28;3953;-34
2021/06/12 00:14:34;;;;;;;;;;;;;;;23.86;55.11;101098.34;2071114;28;4081;-34
2021/06/12 00:16:00;;;;;;;;;;;;;;;23.87;55.06;101108.56;2072743;28;3967;-34
2021/06/12 00:17:25;;;;;;;;;;;;;;;23.86;55.02;101098.34;2072988;28;4041;-34
2021/06/12 00:18:52;;;;;;;;;;;;;;;23.86;55.04;101098.34;2073934;28;4161;-34
2021/06/12 00:20:18;;;;;;;;;;;;;;;23.87;55.08;101102.84;2071807;28;4872;-33
2021/06/12 00:21:45;;;;;;;;;;;;;;;23.87;54.97;101099.16;2068942;28;4237;-34
2021/06/12 00:23:12;;;;;;;;;;;;;;;23.86;54.99;101095.47;2073187;28;3935;-34
2021/06/12 00:24:38;;;;;;;;;;;;;;;23.86;55.03;101089.75;2069492;28;4051;-34
2021/06/12 00:26:04;;;;;;;;;;;;;;;23.87;55.06;101097.13;2060073;28;3951;-33
2021/06/12 00:27:31;;;;;;;;;;;;;;;23.87;54.91;101102.03;2063752;28;4232;-34
2021/06/12 00:28:56;;;;;;;;;;;;;;;23.87;54.93;101091.41;2064284;28;4149;-34
2021/06/12 00:30:23;;;;;;;;;;;;;;;23.88;54.85;101092.28;2063226;28;4207;-33
2021/06/12 00:31:50;;;;;;;;;;;;;;;23.88;54.81;101092.28;2063210;28;3918;-33
2021/06/12 00:33:17;;;;;;;;;;;;;;;23.88;54.85;101095.13;2064188;28;3932;-33
2021/06/12 00:34:43;;;;;;;;;;;;;;;23.88;54.88;101095.13;2059937;28;4004;-33
2021/06/12 00:36:10;;;;;;;;;;;;;;;23.87;54.76;101088.56;2063005;28;3928;-34
2021/06/12 00:37:37;;;;;;;;;;;;;;;23.88;54.80;101089.41;2064786;28;4194;-34
2021/06/12 00:39:04;;;;;;;;;;;;;;;23.89;54.82;101093.91;2064973;28;4049;-34
2021/06/12 00:40:29;;;;;;;;;;;;;;;23.88;54.80;101092.28;2057331;28;4025;-33
2021/06/12 00:41:55;;;;;;;;;;;;;;;23.88;54.78;101093.09;2064333;28;3961;-33
2021/06/12 00:43:21;;;;;;;;;;;;;;;23.89;54.73;101094.75;2069360;28;4078;-34
2021/06/12 00:44:48;;;;;;;;;;;;;;;23.88;54.76;101092.28;2066261;28;3990;-32
2021/06/12 00:46:14;;;;;;;;;;;;;;;23.88;54.71;101086.56;2063924;28;3939;-34
2021/06/12 00:47:40;;;;;;;;;;;;;;;23.88;54.70;101087.38;2059418;28;4051;-34
2021/06/12 00:49:07;;;;;;;;;;;;;;;23.88;54.76;101084.53;2063992;28;3886;-34
2021/06/12 00:50:34;;;;;;;;;;;;;;;23.89;54.66;101080.47;2063493;28;4194;-34
2021/06/12 00:52:04;;;;;;;;;;;;;;;23.89;54.68;101088.19;2064602;28;3902;-34
2021/06/12 00:53:37;;;;;;;;;;;;;;;23.90;54.61;101084.13;2064304;28;4217;-34
2021/06/12 00:55:04;;;;;;;;;;;;;;;23.90;54.59;101089.84;2063994;28;3933;-32
2021/06/12 00:56:30;;;;;;;;;;;;;;;23.89;54.60;101079.63;2063897;28;4046;-33
2021/06/12 00:57:57;;;;;;;;;;;;;;;23.89;54.58;101082.50;2064376;28;4048;-33
2021/06/12 00:59:23;;;;;;;;;;;;;;;23.89;54.62;101079.63;2063207;28;4075;-34
2021/06/12 01:00:50;;;;;;;;;;;;;;;23.89;54.51;101077.59;2062862;28;3948;-34
2021/06/12 01:02:16;;;;;;;;;;;;;;;23.90;54.55;101078.41;2062027;28;3983;-34
2021/06/12 01:03:45;;;;;;;;;;;;;;;23.89;54.51;101068.19;2063750;28;4054;-34
2021/06/12 01:05:11;;;;;;;;;;;;;;;23.90;54.48;101069.84;2065222;28;3957;-33
2021/06/12 01:06:38;;;;;;;;;;;;;;;23.90;54.61;101067.00;2064114;28;4032;-34
2021/06/12 01:08:06;;;;;;;;;;;;;;;23.90;54.56;101073.56;2063683;28;3945;-33
2021/06/12 01:09:33;;;;;;;;;;;;;;;23.90;54.52;101067.84;2064154;28;5000;-33
2021/06/12 01:10:59;;;;;;;;;;;;;;;23.90;54.54;101067.84;2062943;28;4129;-34
2021/06/12 01:12:25;;;;;;;;;;;;;;;23.91;54.54;101066.63;2063582;28;4038;-33
2021/06/12 01:13:53;;;;;;;;;;;;;;;23.91;54.44;101066.63;2064028;28;4004;-34
2021/06/12 01:15:20;;;;;;;;;;;;;;;23.91;54.45;101060.09;2055331;28;4040;-33
2021/06/12 01:16:47;;;;;;;;;;;;;;;23.90;54.55;101062.13;2063432;28;3946;-33
2021/06/12 01:18:14;;;;;;;;;;;;;;;23.92;54.57;101058.88;2064131;28;4011;-34
2021/06/12 01:19:40;;;;;;;;;;;;;;;23.90;54.53;101059.28;2059287;28;4219;-34
2021/06/12 01:21:07;;;;;;;;;;;;;;;23.92;54.53;101058.88;2063799;28;3957;-34
2021/06/12 01:22:34;;;;;;;;;;;;;;;23.91;54.49;101058.06;2062541;28;5064;-34
2021/06/12 01:24:00;;;;;;;;;;;;;;;23.91;54.51;101048.66;2063461;28;3954;-34
2021/06/12 01:25:26;;;;;;;;;;;;;;;23.91;54.53;101058.06;2068192;28;4084;-35
2021/06/12 01:26:52;;;;;;;;;;;;;;;23.92;54.47;101053.16;2070973;28;3974;-34
2021/06/12 01:28:19;;;;;;;;;;;;;;;23.90;54.58;101062.13;2069721;28;4016;-34
2021/06/12 01:29:46;;;;;;;;;;;;;;;23.91;54.54;101057.25;2068092;28;5047;-34
2021/06/12 01:31:13;;;;;;;;;;;;;;;23.91;54.51;101058.06;2070886;28;3978;-34
2021/06/12 01:32:39;;;;;;;;;;;;;;;23.92;54.44;101061.75;2065509;28;4085;-34
2021/06/12 01:34:06;;;;;;;;;;;;;;;23.92;54.52;101058.88;2071501;28;4028;-34
2021/06/12 01:35:33;;;;;;;;;;;;;;;23.92;54.42;101070.31;2070293;28;4097;-34
2021/06/12 01:37:00;;;;;;;;;;;;;;;23.92;54.44;101068.28;2071764;28;3911;-33
2021/06/12 01:38:27;;;;;;;;;;;;;;;23.92;54.51;101065.44;2069880;28;4194;-34
2021/06/12 01:39:54;;;;;;;;;;;;;;;23.92;54.38;101065.44;2071566;28;3929;-34
2021/06/12 01:41:21;;;;;;;;;;;;;;;23.92;54.42;101065.44;2070540;28;4225;-33
2021/06/12 01:42:48;;;;;;;;;;;;;;;23.92;54.42;101061.75;2070660;28;3911;-34
2021/06/12 01:44:15;;;;;;;;;;;;;;;23.92;54.41;101065.44;2072294;28;4039;-33
2021/06/12 01:45:42;;;;;;;;;;;;;;;23.93;54.45;101057.69;2070773;28;5141;-34
2021/06/12 01:47:09;;;;;;;;;;;;;;;23.92;54.45;101056.84;2071318;28;3974;-34
2021/06/12 01:48:36;;;;;;;;;;;;;;;23.92;54.42;101054.00;2072011;28;4059;-34
2021/06/12 01:50:01;;;;;;;;;;;;;;;23.93;54.40;101057.69;2071557;28;3824;-34
2021/06/12 01:51:27;;;;;;;;;;;;;;;23.93;54.39;101060.53;2071798;28;4221;-34
2021/06/12 01:52:54;;;;;;;;;;;;;;;23.93;54.39;101058.53;2071336;28;3982;-34
2021/06/12 01:54:20;;;;;;;;;;;;;;;23.93;54.45;101055.69;2070409;28;4189;-34
2021/06/12 01:55:47;;;;;;;;;;;;;;;23.94;54.49;101053.66;2071216;28;3920;-34
2021/06/12 01:57:13;;;;;;;;;;;;;;;23.93;54.50;101049.09;2071917;28;4016;-34
2021/06/12 01:58:40;;;;;;;;;;;;;;;23.94;54.44;101050.78;2069675;28;4045;-34
2021/06/12 02:00:07;;;;;;;;;;;;;;;23.94;54.39;101050.78;2068428;28;3986;-34
2021/06/12 02:01:34;;;;;;;;;;;;;;;23.94;54.44;101051.59;2070983;28;5409;-34
2021/06/12 02:03:01;;;;;;;;;;;;;;;23.94;54.42;101054.47;2071646;28;4033;-33
2021/06/12 02:04:28;;;;;;;;;;;;;;;23.95;54.43;101052.44;2071512;28;4078;-34
2021/06/12 02:05:55;;;;;;;;;;;;;;;23.94;54.39;101048.75;2072454;28;3951;-34
2021/06/12 02:07:22;;;;;;;;;;;;;;;23.95;54.38;101063.88;2072168;28;4022;-34
2021/06/12 02:08:49;;;;;;;;;;;;;;;23.94;54.46;101057.31;2071918;28;3944;-34
2021/06/12 02:10:16;;;;;;;;;;;;;;;23.95;54.51;101056.13;2070553;28;3928;-33
2021/06/12 02:11:42;;;;;;;;;;;;;;;23.95;54.41;101058.97;2069804;28;4190;-34
2021/06/12 02:13:09;;;;;;;;;;;;;;;23.95;54.46;101056.13;2070552;28;3951;-34
2021/06/12 02:14:36;;;;;;;;;;;;;;;23.96;54.51;101059.81;2070278;28;4100;-33
2021/06/12 02:16:02;;;;;;;;;;;;;;;23.96;54.46;101059.81;2072256;28;3970;-34
2021/06/12 02:17:29;;;;;;;;;;;;;;;23.96;54.59;101065.53;2071246;28;4201;-34
2021/06/12 02:18:54;;;;;;;;;;;;;;;23.96;54.51;101062.69;2071755;28;3891;-34
2021/06/12 02:20:21;;;;;;;;;;;;;;;23.95;54.54;101061.00;2070948;28;4062;-34
2021/06/12 02:21:47;;;;;;;;;;;;;;;23.96;54.84;101068.41;2071689;28;3915;-34
2021/06/12 02:23:14;;;;;;;;;;;;;;;23.97;54.70;101067.19;2071865;28;4842;-34
2021/06/12 02:24:41;;;;;;;;;;;;;;;23.95;54.67;101058.97;2071606;28;4055;-34
2021/06/12 02:26:08;;;;;;;;;;;;;;;23.96;54.73;101062.69;2069864;28;3919;-34
2021/06/12 02:27:34;;;;;;;;;;;;;;;23.96;54.64;101057.78;2072041;28;4234;-34
2021/06/12 02:29:00;;;;;;;;;;;;;;;23.97;54.62;101062.31;2070483;28;4097;-34
2021/06/12 02:30:27;;;;;;;;;;;;;;;23.96;54.63;101066.38;2065228;28;4234;-34
2021/06/12 02:31:54;;;;;;;;;;;;;;;23.97;54.63;101061.47;2071482;28;3978;-34
2021/06/12 02:33:20;;;;;;;;;;;;;;;23.97;54.61;101064.34;2070935;28;4036;-34
2021/06/12 02:34:46;;;;;;;;;;;;;;;23.97;54.68;101059.44;2071168;28;3951;-34
2021/06/12 02:36:13;;;;;;;;;;;;;;;23.96;54.64;101057.78;2070366;28;3940;-34
2021/06/12 02:37:40;;;;;;;;;;;;;;;23.97;54.53;101050.88;2071474;28;4070;-33
2021/06/12 02:39:06;;;;;;;;;;;;;;;23.97;54.54;101058.63;2072236;28;3943;-34
2021/06/12 02:40:32;;;;;;;;;;;;;;;23.96;54.55;101060.66;2071135;28;4055;-34
2021/06/12 02:41:58;;;;;;;;;;;;;;;23.96;54.48;101060.66;2070361;28;3931;-34
2021/06/12 02:43:25;;;;;;;;;;;;;;;23.97;54.67;101062.31;2071830;28;4244;-34
2021/06/12 02:44:52;;;;;;;;;;;;;;;23.96;54.60;101066.38;2071367;28;4031;-34
2021/06/12 02:46:19;;;;;;;;;;;;;;;23.97;54.60;101072.91;2070168;28;4016;-33
2021/06/12 02:47:46;;;;;;;;;;;;;;;23.97;54.58;101081.47;2072191;28;3956;-34
2021/06/12 02:49:13;;;;;;;;;;;;;;;23.96;54.53;101083.53;2072659;28;3957;-35
2021/06/12 02:50:39;;;;;;;;;;;;;;;23.97;54.53;101087.19;2070705;28;5292;-33
2021/06/12 02:52:05;;;;;;;;;;;;;;;23.97;54.60;101079.44;2071892;28;4005;-34
2021/06/12 02:53:32;;;;;;;;;;;;;;;23.96;54.55;101080.66;2071445;28;4892;-34
2021/06/12 02:54:58;;;;;;;;;;;;;;;23.97;54.55;101070.88;2071358;28;3924;-33
2021/06/12 02:56:24;;;;;;;;;;;;;;;23.97;54.57;101085.16;2069831;28;4033;-34
2021/06/12 02:57:51;;;;;;;;;;;;;;;23.96;54.56;101083.53;2070532;28;3943;-34
2021/06/12 02:59:18;;;;;;;;;;;;;;;23.97;54.60;101087.19;2071107;28;3907;-34
2021/06/12 03:00:44;;;;;;;;;;;;;;;23.95;54.58;101084.69;2069251;28;4065;-33
2021/06/12 03:02:11;;;;;;;;;;;;;;;23.96;54.47;101088.41;2071556;28;3888;-33
2021/06/12 03:03:38;;;;;;;;;;;;;;;23.96;54.55;101091.25;2070948;28;4059;-34
2021/06/12 03:05:04;;;;;;;;;;;;;;;23.95;54.56;101090.41;2071311;28;4032;-33
2021/06/12 03:06:31;;;;;;;;;;;;;;;23.96;54.50;101085.56;2071457;28;4021;-34
2021/06/12 03:07:58;;;;;;;;;;;;;;;23.96;54.42;101083.53;2071712;28;3998;-34
2021/06/12 03:09:25;;;;;;;;;;;;;;;23.95;54.44;101078.97;2071265;28;4194;-34
2021/06/12 03:10:53;;;;;;;;;;;;;;;23.95;54.45;101076.13;2071024;28;4004;-34
2021/06/12 03:12:19;;;;;;;;;;;;;;;23.95;54.35;101086.72;2070394;28;4182;-34
2021/06/12 03:13:47;;;;;;;;;;;;;;;23.96;54.59;101079.84;2069924;28;4147;-34
2021/06/12 03:15:14;;;;;;;;;;;;;;;23.96;54.46;101088.41;2071706;28;3917;-34
2021/06/12 03:16:40;;;;;;;;;;;;;;;23.95;54.42;101086.72;2066312;28;4045;-34
2021/06/12 03:18:07;;;;;;;;;;;;;;;23.95;54.49;101090.41;2070921;28;3908;-34
2021/06/12 03:19:33;;;;;;;;;;;;;;;23.95;54.50;101093.28;2070830;28;4042;-34
2021/06/12 03:21:00;;;;;;;;;;;;;;;23.95;54.45;101093.28;2071345;28;3975;-33
2021/06/12 03:22:27;;;;;;;;;;;;;;;23.95;54.43;101092.44;2068946;28;4231;-34
2021/06/12 03:23:54;;;;;;;;;;;;;;;23.95;54.42;101089.59;2071392;28;3995;-34
2021/06/12 03:25:20;;;;;;;;;;;;;;;23.95;54.41;101087.56;2071644;28;4034;-34
2021/06/12 03:26:47;;;;;;;;;;;;;;;23.94;54.38;101088.75;2068753;28;4904;-34
2021/06/12 03:28:13;;;;;;;;;;;;;;;23.94;54.54;101085.91;2069983;28;3917;-34
2021/06/12 03:29:40;;;;;;;;;;;;;;;23.93;54.44;101087.13;2070401;28;4049;-34
2021/06/12 03:31:07;;;;;;;;;;;;;;;23.93;54.43;101084.25;2071904;28;3946;-33
2021/06/12 03:32:33;;;;;;;;;;;;;;;23.94;54.48;101085.91;2070886;28;4063;-34
2021/06/12 03:34:01;;;;;;;;;;;;;;;23.94;54.33;101085.91;2070514;28;3986;-34
2021/06/12 03:35:27;;;;;;;;;;;;;;;23.94;54.38;101085.09;2069741;28;4061;-34
2021/06/12 03:36:53;;;;;;;;;;;;;;;23.94;54.42;101085.91;2071285;28;3947;-34
2021/06/12 03:38:20;;;;;;;;;;;;;;;23.93;54.45;101084.25;2070781;28;4206;-34
2021/06/12 03:39:46;;;;;;;;;;;;;;;23.94;54.40;101082.22;2070842;28;3955;-33
2021/06/12 03:41:13;;;;;;;;;;;;;;;23.94;54.32;101080.19;2071802;28;3965;-33
2021/06/12 03:42:39;;;;;;;;;;;;;;;23.93;54.31;101089.97;2071456;28;4059;-34
2021/06/12 03:44:05;;;;;;;;;;;;;;;23.93;54.34;101081.41;2070293;28;3969;-34
2021/06/12 03:45:32;;;;;;;;;;;;;;;23.94;54.39;101088.75;2069613;28;4036;-34
2021/06/12 03:46:58;;;;;;;;;;;;;;;23.92;54.40;101085.44;2070830;28;4012;-34
2021/06/12 03:48:26;;;;;;;;;;;;;;;23.94;54.33;101090.78;2071216;28;4221;-34
2021/06/12 03:49:53;;;;;;;;;;;;;;;23.92;54.48;101088.28;2072161;28;3899;-34
2021/06/12 03:51:20;;;;;;;;;;;;;;;23.93;54.38;101087.13;2070243;28;4190;-34
2021/06/12 03:52:46;;;;;;;;;;;;;;;23.93;54.28;101089.13;2071409;28;3898;-33
2021/06/12 03:54:12;;;;;;;;;;;;;;;23.93;54.30;101083.41;2070071;28;3967;-33
2021/06/12 03:55:39;;;;;;;;;;;;;;;23.93;54.35;101080.53;2066443;28;4255;-34
2021/06/12 03:57:05;;;;;;;;;;;;;;;23.93;54.32;101072.81;2070359;28;3946;-34
2021/06/12 03:58:31;;;;;;;;;;;;;;;23.93;54.28;101078.53;2070066;28;4349;-33
2021/06/12 03:59:57;;;;;;;;;;;;;;;23.92;54.30;101082.56;2071393;28;4003;-34
2021/06/12 04:01:23;;;;;;;;;;;;;;;23.93;54.32;101072.81;2070148;28;5016;-34
2021/06/12 04:02:50;;;;;;;;;;;;;;;23.92;54.36;101065.44;2070588;28;3987;-33
2021/06/12 04:04:20;;;;;;;;;;;;;;;23.93;54.33;101071.97;2070893;28;4083;-33
2021/06/12 04:05:46;;;;;;;;;;;;;;;23.92;54.44;101076.88;2071239;28;4037;-34
2021/06/12 04:07:12;;;;;;;;;;;;;;;23.93;54.32;101069.97;2071246;28;3977;-34
2021/06/12 04:08:38;;;;;;;;;;;;;;;23.92;54.34;101068.28;2070985;28;4195;-34
2021/06/12 04:10:04;;;;;;;;;;;;;;;23.92;54.40;101071.16;2071264;28;3922;-34
2021/06/12 04:11:30;;;;;;;;;;;;;;;23.92;54.43;101076.88;2070966;28;4076;-33
2021/06/12 04:12:57;;;;;;;;;;;;;;;23.92;54.43;101079.72;2071503;28;3927;-34
2021/06/12 04:14:24;;;;;;;;;;;;;;;23.92;54.50;101079.72;2069905;28;4240;-33
2021/06/12 04:15:50;;;;;;;;;;;;;;;23.92;54.51;101094.00;2070538;28;3983;-34
2021/06/12 04:17:17;;;;;;;;;;;;;;;23.92;54.42;101091.16;2071163;28;4123;-33
2021/06/12 04:18:44;;;;;;;;;;;;;;;23.92;54.49;101082.56;2070530;28;4242;-33
2021/06/12 04:20:10;;;;;;;;;;;;;;;23.92;54.38;101087.47;2071661;28;3916;-34
2021/06/12 04:21:38;;;;;;;;;;;;;;;23.92;54.43;101084.59;2070241;28;4211;-34
2021/06/12 04:23:04;;;;;;;;;;;;;;;23.92;54.43;101078.91;2070461;28;3919;-34
2021/06/12 04:24:30;;;;;;;;;;;;;;;23.92;54.30;101081.75;2070976;28;4025;-34
2021/06/12 04:25:56;;;;;;;;;;;;;;;23.92;54.38;101079.72;2070890;28;3899;-34
2021/06/12 04:27:22;;;;;;;;;;;;;;;23.92;54.31;101082.56;2069097;28;4251;-34
2021/06/12 04:28:49;;;;;;;;;;;;;;;23.92;54.32;101076.03;2070030;28;3975;-34
2021/06/12 04:30:19;;;;;;;;;;;;;;;23.92;54.44;101081.75;2070747;28;3921;-33
2021/06/12 04:31:55;;;;;;;;;;;;;;;23.92;54.41;101082.56;2071072;28;4062;-34
2021/06/12 04:33:22;;;;;;;;;;;;;;;23.92;54.37;101087.47;2070622;28;4013;-34
2021/06/12 04:34:48;;;;;;;;;;;;;;;23.91;54.42;101078.06;2072044;28;3966;-34
2021/06/12 04:36:14;;;;;;;;;;;;;;;23.92;54.45;101088.28;2071096;28;3830;-34
2021/06/12 04:37:40;;;;;;;;;;;;;;;23.92;54.41;101084.59;2070474;28;4067;-34
2021/06/12 04:39:07;;;;;;;;;;;;;;;23.91;54.39;101080.94;2070952;28;3978;-34
2021/06/12 04:40:33;;;;;;;;;;;;;;;23.91;54.41;101089.50;2070976;28;4248;-34
2021/06/12 04:42:00;;;;;;;;;;;;;;;23.92;54.46;101094.00;2071025;28;3963;-34
2021/06/12 04:43:26;;;;;;;;;;;;;;;23.92;54.35;101087.47;2070681;28;4001;-34
2021/06/12 04:44:53;;;;;;;;;;;;;;;23.92;54.49;101085.44;2070918;28;4145;-33
2021/06/12 04:46:19;;;;;;;;;;;;;;;23.92;54.45;101082.56;2072588;28;4083;-33
2021/06/12 04:47:45;;;;;;;;;;;;;;;23.93;54.39;101089.13;2071049;28;4038;-33
2021/06/12 04:49:13;;;;;;;;;;;;;;;23.92;54.48;101082.56;2069951;28;3916;-33
2021/06/12 04:50:39;;;;;;;;;;;;;;;23.93;54.48;101083.41;2072806;28;4042;-34
2021/06/12 04:52:06;;;;;;;;;;;;;;;23.93;54.48;101089.97;2072453;28;3938;-34
2021/06/12 04:53:32;;;;;;;;;;;;;;;23.92;54.44;101078.91;2071068;28;4038;-34
2021/06/12 04:54:58;;;;;;;;;;;;;;;23.91;54.46;101083.78;2071907;28;4033;-34
2021/06/12 04:56:24;;;;;;;;;;;;;;;23.92;54.38;101082.56;2071748;28;4041;-33
2021/06/12 04:57:50;;;;;;;;;;;;;;;23.92;54.45;101082.56;2072067;28;4117;-33
2021/06/12 04:59:17;;;;;;;;;;;;;;;23.92;54.51;101076.03;2072772;28;3899;-33
2021/06/12 05:00:43;;;;;;;;;;;;;;;23.93;54.57;101080.53;2071150;28;4240;-33
2021/06/12 05:02:11;;;;;;;;;;;;;;;23.93;54.58;101074.81;2072623;28;3924;-34
2021/06/12 05:03:38;;;;;;;;;;;;;;;23.93;54.54;101069.97;2071419;28;4077;-33
2021/06/12 05:05:04;;;;;;;;;;;;;;;23.93;54.64;101075.69;2072471;28;3923;-34
2021/06/12 05:06:30;;;;;;;;;;;;;;;23.92;54.58;101074.00;2071749;28;4186;-33
2021/06/12 05:07:56;;;;;;;;;;;;;;;23.93;54.52;101066.25;2072420;28;3915;-34
2021/06/12 05:09:22;;;;;;;;;;;;;;;23.93;54.59;101069.09;2068670;28;4399;-33
2021/06/12 05:10:49;;;;;;;;;;;;;;;23.92;54.47;101068.28;2073145;28;3947;-34
2021/06/12 05:12:15;;;;;;;;;;;;;;;23.93;54.52;101069.97;2071416;28;3940;-34
2021/06/12 05:13:41;;;;;;;;;;;;;;;23.94;54.50;101068.75;2071392;28;4004;-34
2021/06/12 05:15:08;;;;;;;;;;;;;;;23.94;54.45;101063.03;2071038;28;3947;-34
2021/06/12 05:16:37;;;;;;;;;;;;;;;23.96;54.44;101071.25;2065509;28;4172;-34
2021/06/12 05:18:05;;;;;;;;;;;;;;;23.96;54.53;101071.25;2067933;28;4015;-33
2021/06/12 05:19:33;;;;;;;;;;;;;;;23.96;54.53;101077.81;2071494;28;4230;-34
2021/06/12 05:21:00;;;;;;;;;;;;;;;23.96;54.66;101074.94;2072342;28;3951;-33
2021/06/12 05:22:26;;;;;;;;;;;;;;;23.98;54.48;101071.69;2070578;28;4264;-34
2021/06/12 05:23:53;;;;;;;;;;;;;;;23.98;54.47;101061.13;2071725;28;3939;-33
2021/06/12 05:25:20;;;;;;;;;;;;;;;23.98;54.56;101066.84;2070608;28;4243;-34
2021/06/12 05:26:46;;;;;;;;;;;;;;;24.00;54.56;101060.72;2071107;28;4019;-33
2021/06/12 05:28:12;;;;;;;;;;;;;;;23.98;54.65;101061.13;2071244;28;3943;-34
2021/06/12 05:29:39;;;;;;;;;;;;;;;23.99;54.63;101061.94;2070393;28;5272;-34
2021/06/12 05:31:05;;;;;;;;;;;;;;;23.99;54.63;101059.91;2071764;28;4013;-34
2021/06/12 05:32:31;;;;;;;;;;;;;;;24.01;54.64;101045.22;2070790;28;5308;-34
2021/06/12 05:33:57;;;;;;;;;;;;;;;24.01;54.70;101050.94;2069921;28;3918;-33
2021/06/12 05:35:23;;;;;;;;;;;;;;;24.02;54.70;101051.81;2070518;28;4207;-34
2021/06/12 05:36:50;;;;;;;;;;;;;;;24.02;54.76;101046.91;2071297;28;3936;-34
2021/06/12 05:38:17;;;;;;;;;;;;;;;24.02;54.77;101052.63;2071824;28;3940;-34
2021/06/12 05:39:43;;;;;;;;;;;;;;;24.02;54.83;101049.78;2071213;28;4706;-34
2021/06/12 05:41:09;;;;;;;;;;;;;;;24.04;54.87;101052.25;2071637;28;3891;-34
2021/06/12 05:42:35;;;;;;;;;;;;;;;24.03;54.98;101062.84;2061496;28;4024;-34
2021/06/12 05:44:02;;;;;;;;;;;;;;;24.03;54.91;101056.31;2069351;28;3931;-34
2021/06/12 05:45:29;;;;;;;;;;;;;;;24.02;54.91;101061.22;2070607;28;4209;-34
2021/06/12 05:46:55;;;;;;;;;;;;;;;24.03;54.80;101062.84;2071833;28;3946;-33
2021/06/12 05:48:25;;;;;;;;;;;;;;;24.04;54.82;101067.38;2071170;28;4022;-34
2021/06/12 05:49:51;;;;;;;;;;;;;;;24.04;54.85;101077.97;2069951;28;3979;-34
2021/06/12 05:51:18;;;;;;;;;;;;;;;24.04;54.82;101067.38;2071772;28;3940;-34
2021/06/12 05:52:45;;;;;;;;;;;;;;;24.04;54.87;101066.53;2071544;28;4050;-34
2021/06/12 05:54:13;;;;;;;;;;;;;;;24.05;54.82;101069.03;2070792;28;3916;-34
2021/06/12 05:55:39;;;;;;;;;;;;;;;24.05;54.84;101074.75;2070664;28;4203;-34
2021/06/12 05:57:06;;;;;;;;;;;;;;;24.04;54.86;101078.81;2071743;28;4191;-34
2021/06/12 05:58:33;;;;;;;;;;;;;;;24.05;54.96;101066.19;2070224;28;4058;-34
2021/06/12 06:00:00;;;;;;;;;;;;;;;24.05;54.78;101080.47;2071700;28;3943;-34
2021/06/12 06:01:31;;;;;;;;;;;;;;;24.06;54.81;101078.44;2069513;28;4033;-34
2021/06/12 06:02:58;;;;;;;;;;;;;;;24.06;54.84;101070.69;2069621;28;4004;-33
2021/06/12 06:04:25;;;;;;;;;;;;;;;24.06;54.97;101076.41;2069994;28;4231;-34
2021/06/12 06:05:51;;;;;;;;;;;;;;;24.07;54.99;101074.38;2070400;28;3900;-34
2021/06/12 06:07:17;;;;;;;;;;;;;;;24.08;54.97;101070.34;2071119;28;4002;-33
2021/06/12 06:08:44;;;;;;;;;;;;;;;24.07;54.90;101077.22;2071122;28;4203;-34
2021/06/12 06:10:11;;;;;;;;;;;;;;;24.07;54.95;101071.50;2071013;28;4122;-34
2021/06/12 06:11:37;;;;;;;;;;;;;;;24.07;54.96;101083.81;2063925;28;4058;-34
2021/06/12 06:13:03;;;;;;;;;;;;;;;24.07;54.91;101077.22;2069592;28;3935;-34
2021/06/12 06:14:29;;;;;;;;;;;;;;;24.08;55.04;101085.44;2063410;28;4329;-34
2021/06/12 06:15:56;;;;;;;;;;;;;;;24.08;54.90;101081.78;2071434;28;3931;-33
2021/06/12 06:17:24;;;;;;;;;;;;;;;24.08;55.04;101074.03;2070243;28;4047;-34
2021/06/12 06:18:50;;;;;;;;;;;;;;;24.08;54.91;101074.03;2071153;28;3966;-34
2021/06/12 06:20:17;;;;;;;;;;;;;;;24.08;54.85;101074.03;2070964;28;3999;-34
2021/06/12 06:21:44;;;;;;;;;;;;;;;24.09;54.95;101074.84;2070989;28;4224;-34
2021/06/12 06:23:11;;;;;;;;;;;;;;;24.09;54.88;101071.97;2071166;28;3971;-34
2021/06/12 06:24:38;;;;;;;;;;;;;;;24.09;54.87;101069.13;2070883;28;4636;-33
2021/06/12 06:26:05;;;;;;;;;;;;;;;24.09;54.88;101064.22;2061274;28;4036;-34
2021/06/12 06:27:31;;;;;;;;;;;;;;;24.10;54.94;101070.81;2062449;28;4203;-34
2021/06/12 06:28:57;;;;;;;;;;;;;;;24.10;54.98;101071.63;2063046;28;3939;-33
2021/06/12 06:30:24;;;;;;;;;;;;;;;24.10;55.03;101059.38;2062804;28;4054;-34
2021/06/12 06:31:51;;;;;;;;;;;;;;;24.10;54.83;101065.91;2062842;28;3986;-33
2021/06/12 06:33:21;;;;;;;;;;;;;;;24.10;54.98;101068.78;2062514;28;3900;-34
2021/06/12 06:34:48;;;;;;;;;;;;;;;24.10;55.05;101065.91;2062739;28;4226;-33
2021/06/12 06:36:16;;;;;;;;;;;;;;;24.10;55.04;101068.78;2062803;28;3949;-33
2021/06/12 06:37:42;;;;;;;;;;;;;;;24.10;54.93;101073.66;2062520;28;4048;-34
2021/06/12 06:39:08;;;;;;;;;;;;;;;24.11;54.98;101070.41;2062900;28;3939;-34
2021/06/12 06:40:35;;;;;;;;;;;;;;;24.11;54.88;101073.28;2063458;28;4056;-34
2021/06/12 06:42:03;;;;;;;;;;;;;;;24.10;54.98;101071.63;2063303;28;3961;-34
2021/06/12 06:43:29;;;;;;;;;;;;;;;24.11;54.95;101072.44;2061597;28;4238;-34
2021/06/12 06:44:55;;;;;;;;;;;;;;;24.11;54.98;101070.41;2063101;28;3933;-34
2021/06/12 06:46:22;;;;;;;;;;;;;;;24.13;55.02;101072.91;2061546;28;4221;-33
2021/06/12 06:47:49;;;;;;;;;;;;;;;24.12;55.12;101074.94;2062585;28;3952;-34
2021/06/12 06:49:15;;;;;;;;;;;;;;;24.13;55.18;101070.06;2055199;28;3902;-33
2021/06/12 06:50:41;;;;;;;;;;;;;;;24.12;54.87;101072.09;2062901;28;4041;-34
2021/06/12 06:52:07;;;;;;;;;;;;;;;24.13;55.00;101065.16;2063050;28;4073;-34
2021/06/12 06:53:33;;;;;;;;;;;;;;;24.14;55.06;101068.84;2062422;28;4222;-34
2021/06/12 06:55:00;;;;;;;;;;;;;;;24.13;55.04;101064.34;2062884;28;3972;-34
2021/06/12 06:56:26;;;;;;;;;;;;;;;24.13;55.04;101067.22;2061113;28;4050;-34
2021/06/12 06:57:53;;;;;;;;;;;;;;;24.12;55.19;101057.81;2060650;28;4082;-34
2021/06/12 06:59:20;;;;;;;;;;;;;;;24.12;55.05;101060.66;2062220;28;4026;-34
2021/06/12 07:00:46;;;;;;;;;;;;;;;24.13;55.02;101072.91;2062417;28;3911;-33
2021/06/12 07:02:12;;;;;;;;;;;;;;;24.12;55.11;101074.94;2061342;28;4020;-34
2021/06/12 07:03:39;;;;;;;;;;;;;;;24.13;55.02;101070.88;2062761;28;4031;-33
2021/06/12 07:05:11;;;;;;;;;;;;;;;24.13;54.94;101076.59;2063249;28;3886;-34
2021/06/12 07:06:38;;;;;;;;;;;;;;;24.14;55.00;101078.25;2061170;28;4056;-34
2021/06/12 07:08:04;;;;;;;;;;;;;;;24.14;55.05;101072.53;2061702;28;3934;-34
2021/06/12 07:09:30;;;;;;;;;;;;;;;24.14;55.02;101077.44;2059748;28;4236;-34
2021/06/12 07:10:57;;;;;;;;;;;;;;;24.13;54.97;101073.75;2063366;28;3956;-34
2021/06/12 07:12:24;;;;;;;;;;;;;;;24.14;55.08;101068.84;2062806;28;4209;-34
2021/06/12 07:13:51;;;;;;;;;;;;;;;24.13;55.08;101070.06;2062863;28;3965;-34
2021/06/12 07:15:18;;;;;;;;;;;;;;;24.14;54.87;101074.56;2062292;28;3910;-34
2021/06/12 07:16:45;;;;;;;;;;;;;;;24.13;55.04;101064.34;2063293;28;4049;-33
2021/06/12 07:18:11;;;;;;;;;;;;;;;24.13;54.96;101059.44;2062342;28;4112;-34
2021/06/12 07:19:37;;;;;;;;;;;;;;;24.15;55.02;101056.19;2063316;28;4224;-33
2021/06/12 07:21:03;;;;;;;;;;;;;;;24.15;55.08;101065.63;2063633;28;3929;-34
2021/06/12 07:22:30;;;;;;;;;;;;;;;24.15;55.07;101059.06;2063302;28;4218;-34
2021/06/12 07:23:57;;;;;;;;;;;;;;;24.13;55.13;101059.44;2062686;28;3972;-34
2021/06/12 07:25:23;;;;;;;;;;;;;;;24.14;54.98;101057.41;2065274;28;4259;-33
2021/06/12 07:26:49;;;;;;;;;;;;;;;24.13;55.15;101059.44;2067172;28;3994;-34
2021/06/12 07:28:16;;;;;;;;;;;;;;;24.13;55.08;101062.31;2066927;28;3955;-34
2021/06/12 07:29:43;;;;;;;;;;;;;;;24.13;55.10;101061.47;2063982;28;4218;-33
2021/06/12 07:31:11;;;;;;;;;;;;;;;24.14;55.03;101061.09;2067311;28;3923;-34